sensor_id;sensor_type;location;lat;lon;timestamp;P1;durP1;ratioP1;P2;durP2;ratioP2
46751;SDS011;32497;48.936;9.270;2022-07-10T00:04:18;6.97;;;6.25;;
46751;SDS011;32497;48.936;9.270;2022-07-10T00:09:19;7.65;;;5.93;;
46751;SDS011;32497;48.936;9.270;2022-07-10T00:14:21;7.18;;;6.47;;
46751;SDS011;32497;48.936;9.270;2022-07-10T00:19:22;7.18;;;6.47;;
46751;SDS011;32497;48.936;9.270;2022-07-10T00:24:23;8.45;;;6.70;;
46751;SDS011;32497;48.936;9.270;2022-07-10T00:29:26;8.77;;;6.28;;
46751;SDS011;32497;48.936;9.270;2022-07-10T00:34:27;7.30;;;6.60;;
46751;SDS011;32497;48.936;9.270;2022-07-10T00:39:28;7.72;;;6.93;;
46751;SDS011;32497;48.936;9.270;2022-07-10T00:44:30;8.40;;;7.15;;
46751;SDS011;32497;48.936;9.270;2022-07-10T00:49:31;9.30;;;7.20;;
46751;SDS011;32497;48.936;9.270;2022-07-10T00:54:32;8.95;;;7.30;;
46751;SDS011;32497;48.936;9.270;2022-07-10T00:59:36;10.63;;;7.70;;
46751;SDS011;32497;48.936;9.270;2022-07-10T01:04:37;9.20;;;7.57;;
46751;SDS011;32497;48.936;9.270;2022-07-10T01:09:38;8.25;;;7.43;;
46751;SDS011;32497;48.936;9.270;2022-07-10T01:14:40;8.50;;;7.68;;
46751;SDS011;32497;48.936;9.270;2022-07-10T01:19:41;8.63;;;7.40;;
46751;SDS011;32497;48.936;9.270;2022-07-10T01:24:44;8.68;;;7.78;;
46751;SDS011;32497;48.936;9.270;2022-07-10T01:29:45;8.65;;;7.78;;
46751;SDS011;32497;48.936;9.270;2022-07-10T01:34:47;8.57;;;7.40;;
46751;SDS011;32497;48.936;9.270;2022-07-10T01:39:49;8.60;;;7.80;;
46751;SDS011;32497;48.936;9.270;2022-07-10T01:44:50;8.25;;;7.30;;
46751;SDS011;32497;48.936;9.270;2022-07-10T01:49:51;8.10;;;7.30;;
46751;SDS011;32497;48.936;9.270;2022-07-10T01:54:54;9.13;;;7.35;;
46751;SDS011;32497;48.936;9.270;2022-07-10T01:59:55;9.15;;;7.65;;
46751;SDS011;32497;48.936;9.270;2022-07-10T02:04:56;9.38;;;7.53;;
46751;SDS011;32497;48.936;9.270;2022-07-10T02:09:58;9.43;;;7.93;;
46751;SDS011;32497;48.936;9.270;2022-07-10T02:14:59;9.27;;;7.55;;
46751;SDS011;32497;48.936;9.270;2022-07-10T02:20:00;8.35;;;7.28;;
46751;SDS011;32497;48.936;9.270;2022-07-10T02:25:03;8.48;;;6.88;;
46751;SDS011;32497;48.936;9.270;2022-07-10T02:30:05;8.20;;;6.47;;
46751;SDS011;32497;48.936;9.270;2022-07-10T02:35:07;7.28;;;6.13;;
46751;SDS011;32497;48.936;9.270;2022-07-10T02:40:15;7.18;;;6.45;;
46751;SDS011;32497;48.936;9.270;2022-07-10T02:45:16;9.10;;;6.32;;
46751;SDS011;32497;48.936;9.270;2022-07-10T02:50:17;6.68;;;5.88;;
46751;SDS011;32497;48.936;9.270;2022-07-10T02:55:19;6.65;;;5.90;;
46751;SDS011;32497;48.936;9.270;2022-07-10T03:00:20;7.00;;;5.82;;
46751;SDS011;32497;48.936;9.270;2022-07-10T03:05:21;7.57;;;6.07;;
46751;SDS011;32497;48.936;9.270;2022-07-10T03:10:24;7.50;;;5.70;;
46751;SDS011;32497;48.936;9.270;2022-07-10T03:15:25;10.20;;;6.22;;
46751;SDS011;32497;48.936;9.270;2022-07-10T03:20:26;5.80;;;5.20;;
46751;SDS011;32497;48.936;9.270;2022-07-10T03:25:29;6.43;;;5.32;;
46751;SDS011;32497;48.936;9.270;2022-07-10T03:30:30;6.70;;;5.70;;
46751;SDS011;32497;48.936;9.270;2022-07-10T03:35:31;8.10;;;5.38;;
46751;SDS011;32497;48.936;9.270;2022-07-10T03:40:33;7.45;;;5.15;;
46751;SDS011;32497;48.936;9.270;2022-07-10T03:45:34;5.65;;;4.65;;
46751;SDS011;32497;48.936;9.270;2022-07-10T03:50:35;7.13;;;5.38;;
46751;SDS011;32497;48.936;9.270;2022-07-10T03:55:37;7.30;;;5.10;;
46751;SDS011;32497;48.936;9.270;2022-07-10T04:00:38;6.65;;;5.15;;
46751;SDS011;32497;48.936;9.270;2022-07-10T04:05:39;7.18;;;5.40;;
46751;SDS011;32497;48.936;9.270;2022-07-10T04:10:42;5.47;;;4.88;;
46751;SDS011;32497;48.936;9.270;2022-07-10T04:15:43;7.10;;;5.38;;
46751;SDS011;32497;48.936;9.270;2022-07-10T04:20:44;6.03;;;4.78;;
46751;SDS011;32497;48.936;9.270;2022-07-10T04:25:46;5.30;;;4.80;;
46751;SDS011;32497;48.936;9.270;2022-07-10T04:30:47;7.95;;;4.93;;
46751;SDS011;32497;48.936;9.270;2022-07-10T04:35:48;5.38;;;4.88;;
46751;SDS011;32497;48.936;9.270;2022-07-10T04:40:51;6.28;;;4.70;;
46751;SDS011;32497;48.936;9.270;2022-07-10T04:45:52;7.53;;;5.00;;
46751;SDS011;32497;48.936;9.270;2022-07-10T04:50:53;5.03;;;4.50;;
46751;SDS011;32497;48.936;9.270;2022-07-10T04:55:56;5.47;;;4.57;;
46751;SDS011;32497;48.936;9.270;2022-07-10T05:00:57;5.13;;;4.63;;
46751;SDS011;32497;48.936;9.270;2022-07-10T05:05:58;4.82;;;4.30;;
46751;SDS011;32497;48.936;9.270;2022-07-10T05:11:00;5.20;;;4.32;;
46751;SDS011;32497;48.936;9.270;2022-07-10T05:16:01;5.13;;;4.40;;
46751;SDS011;32497;48.936;9.270;2022-07-10T05:21:02;5.32;;;3.83;;
46751;SDS011;32497;48.936;9.270;2022-07-10T05:26:05;4.57;;;3.40;;
46751;SDS011;32497;48.936;9.270;2022-07-10T05:31:06;4.65;;;3.22;;
46751;SDS011;32497;48.936;9.270;2022-07-10T05:36:07;4.00;;;2.97;;
46751;SDS011;32497;48.936;9.270;2022-07-10T05:41:10;5.00;;;2.90;;
46751;SDS011;32497;48.936;9.270;2022-07-10T05:46:11;4.55;;;3.15;;
46751;SDS011;32497;48.936;9.270;2022-07-10T05:51:12;6.22;;;2.90;;
46751;SDS011;32497;48.936;9.270;2022-07-10T05:56:14;5.70;;;3.03;;
46751;SDS011;32497;48.936;9.270;2022-07-10T06:01:15;6.43;;;3.10;;
46751;SDS011;32497;48.936;9.270;2022-07-10T06:06:16;4.28;;;2.65;;
46751;SDS011;32497;48.936;9.270;2022-07-10T06:11:18;4.43;;;2.42;;
46751;SDS011;32497;48.936;9.270;2022-07-10T06:16:19;4.05;;;2.30;;
46751;SDS011;32497;48.936;9.270;2022-07-10T06:21:20;2.20;;;2.00;;
46751;SDS011;32497;48.936;9.270;2022-07-10T06:26:23;2.50;;;1.70;;
46751;SDS011;32497;48.936;9.270;2022-07-10T06:31:24;2.92;;;1.80;;
46751;SDS011;32497;48.936;9.270;2022-07-10T06:36:24;2.78;;;1.90;;
46751;SDS011;32497;48.936;9.270;2022-07-10T06:41:27;4.95;;;2.00;;
46751;SDS011;32497;48.936;9.270;2022-07-10T06:46:28;3.15;;;1.50;;
46751;SDS011;32497;48.936;9.270;2022-07-10T06:51:29;2.92;;;1.73;;
46751;SDS011;32497;48.936;9.270;2022-07-10T06:56:32;6.97;;;1.70;;
46751;SDS011;32497;48.936;9.270;2022-07-10T07:01:33;1.95;;;1.40;;
46751;SDS011;32497;48.936;9.270;2022-07-10T07:06:34;2.17;;;1.25;;
46751;SDS011;32497;48.936;9.270;2022-07-10T07:11:37;2.67;;;1.50;;
46751;SDS011;32497;48.936;9.270;2022-07-10T07:16:38;2.65;;;1.30;;
46751;SDS011;32497;48.936;9.270;2022-07-10T07:21:39;2.25;;;1.67;;
46751;SDS011;32497;48.936;9.270;2022-07-10T07:26:41;4.10;;;1.55;;
46751;SDS011;32497;48.936;9.270;2022-07-10T07:31:42;3.15;;;1.50;;
46751;SDS011;32497;48.936;9.270;2022-07-10T07:36:44;1.73;;;1.20;;
46751;SDS011;32497;48.936;9.270;2022-07-10T07:41:46;3.28;;;1.40;;
46751;SDS011;32497;48.936;9.270;2022-07-10T07:46:47;4.18;;;2.00;;
46751;SDS011;32497;48.936;9.270;2022-07-10T07:51:48;2.28;;;1.40;;
46751;SDS011;32497;48.936;9.270;2022-07-10T07:56:50;2.15;;;1.30;;
46751;SDS011;32497;48.936;9.270;2022-07-10T08:01:51;2.97;;;1.30;;
46751;SDS011;32497;48.936;9.270;2022-07-10T08:06:52;3.80;;;1.35;;
46751;SDS011;32497;48.936;9.270;2022-07-10T08:11:55;3.70;;;1.40;;
46751;SDS011;32497;48.936;9.270;2022-07-10T08:16:56;2.65;;;1.35;;
46751;SDS011;32497;48.936;9.270;2022-07-10T08:21:57;2.40;;;1.30;;
46751;SDS011;32497;48.936;9.270;2022-07-10T08:26:59;6.63;;;1.10;;
46751;SDS011;32497;48.936;9.270;2022-07-10T08:32:00;3.83;;;1.20;;
46751;SDS011;32497;48.936;9.270;2022-07-10T08:37:01;3.22;;;1.50;;
46751;SDS011;32497;48.936;9.270;2022-07-10T08:42:05;1.75;;;1.10;;
46751;SDS011;32497;48.936;9.270;2022-07-10T08:47:07;1.95;;;1.10;;
46751;SDS011;32497;48.936;9.270;2022-07-10T08:52:08;4.13;;;1.27;;
46751;SDS011;32497;48.936;9.270;2022-07-10T08:57:14;2.60;;;1.00;;
46751;SDS011;32497;48.936;9.270;2022-07-10T09:02:17;2.08;;;1.13;;
46751;SDS011;32497;48.936;9.270;2022-07-10T09:07:18;1.98;;;1.17;;
46751;SDS011;32497;48.936;9.270;2022-07-10T09:12:22;1.77;;;0.90;;
46751;SDS011;32497;48.936;9.270;2022-07-10T09:17:24;3.20;;;0.90;;
46751;SDS011;32497;48.936;9.270;2022-07-10T09:22:25;3.05;;;0.95;;
46751;SDS011;32497;48.936;9.270;2022-07-10T09:27:27;2.17;;;0.90;;
46751;SDS011;32497;48.936;9.270;2022-07-10T09:32:28;2.20;;;0.90;;
46751;SDS011;32497;48.936;9.270;2022-07-10T09:37:29;3.50;;;0.95;;
46751;SDS011;32497;48.936;9.270;2022-07-10T09:42:32;2.97;;;0.90;;
46751;SDS011;32497;48.936;9.270;2022-07-10T09:47:35;1.38;;;0.90;;
46751;SDS011;32497;48.936;9.270;2022-07-10T09:52:36;2.45;;;1.00;;
46751;SDS011;32497;48.936;9.270;2022-07-10T09:57:40;4.00;;;1.05;;
46751;SDS011;32497;48.936;9.270;2022-07-10T10:02:44;1.70;;;0.77;;
46751;SDS011;32497;48.936;9.270;2022-07-10T10:07:47;2.83;;;0.90;;
46751;SDS011;32497;48.936;9.270;2022-07-10T10:12:51;1.33;;;0.80;;
46751;SDS011;32497;48.936;9.270;2022-07-10T10:17:59;1.15;;;0.70;;
46751;SDS011;32497;48.936;9.270;2022-07-10T10:23:03;2.95;;;0.85;;
46751;SDS011;32497;48.936;9.270;2022-07-10T10:28:08;2.78;;;0.88;;
46751;SDS011;32497;48.936;9.270;2022-07-10T10:39:02;2.40;;;0.80;;
46751;SDS011;32497;48.936;9.270;2022-07-10T10:44:22;3.00;;;1.00;;
46751;SDS011;32497;48.936;9.270;2022-07-10T10:49:24;2.47;;;0.95;;
46751;SDS011;32497;48.936;9.270;2022-07-10T10:54:26;2.40;;;1.10;;
46751;SDS011;32497;48.936;9.270;2022-07-10T10:59:45;2.95;;;1.05;;
46751;SDS011;32497;48.936;9.270;2022-07-10T11:04:47;3.22;;;1.20;;
46751;SDS011;32497;48.936;9.270;2022-07-10T11:09:49;2.67;;;1.10;;
46751;SDS011;32497;48.936;9.270;2022-07-10T11:14:51;2.25;;;1.20;;
46751;SDS011;32497;48.936;9.270;2022-07-10T11:19:53;3.78;;;1.10;;
46751;SDS011;32497;48.936;9.270;2022-07-10T11:24:58;1.73;;;1.10;;
46751;SDS011;32497;48.936;9.270;2022-07-10T11:30:06;1.95;;;0.95;;
46751;SDS011;32497;48.936;9.270;2022-07-10T11:35:10;2.40;;;0.93;;
46751;SDS011;32497;48.936;9.270;2022-07-10T11:40:12;2.53;;;1.10;;
46751;SDS011;32497;48.936;9.270;2022-07-10T11:45:25;3.38;;;1.13;;
46751;SDS011;32497;48.936;9.270;2022-07-10T11:50:28;1.50;;;1.02;;
46751;SDS011;32497;48.936;9.270;2022-07-10T11:55:36;1.83;;;0.98;;
46751;SDS011;32497;48.936;9.270;2022-07-10T12:00:39;2.30;;;1.02;;
46751;SDS011;32497;48.936;9.270;2022-07-10T12:05:40;2.03;;;0.90;;
46751;SDS011;32497;48.936;9.270;2022-07-10T12:10:41;2.55;;;1.10;;
46751;SDS011;32497;48.936;9.270;2022-07-10T12:15:44;2.03;;;0.88;;
46751;SDS011;32497;48.936;9.270;2022-07-10T12:20:46;2.03;;;1.08;;
46751;SDS011;32497;48.936;9.270;2022-07-10T12:25:48;3.08;;;1.10;;
46751;SDS011;32497;48.936;9.270;2022-07-10T12:30:51;1.80;;;0.90;;
46751;SDS011;32497;48.936;9.270;2022-07-10T12:35:53;3.33;;;0.85;;
46751;SDS011;32497;48.936;9.270;2022-07-10T12:41:06;2.05;;;0.70;;
46751;SDS011;32497;48.936;9.270;2022-07-10T12:46:08;2.13;;;0.80;;
46751;SDS011;32497;48.936;9.270;2022-07-10T12:51:24;2.22;;;0.70;;
46751;SDS011;32497;48.936;9.270;2022-07-10T12:56:29;1.77;;;0.80;;
46751;SDS011;32497;48.936;9.270;2022-07-10T13:01:43;1.55;;;0.70;;
46751;SDS011;32497;48.936;9.270;2022-07-10T13:06:44;1.27;;;0.70;;
46751;SDS011;32497;48.936;9.270;2022-07-10T13:11:45;1.35;;;0.60;;
46751;SDS011;32497;48.936;9.270;2022-07-10T13:16:48;1.75;;;0.70;;
46751;SDS011;32497;48.936;9.270;2022-07-10T13:21:49;1.52;;;0.50;;
46751;SDS011;32497;48.936;9.270;2022-07-10T13:26:50;0.90;;;0.55;;
46751;SDS011;32497;48.936;9.270;2022-07-10T13:31:52;1.58;;;0.70;;
46751;SDS011;32497;48.936;9.270;2022-07-10T13:36:53;1.17;;;0.60;;
46751;SDS011;32497;48.936;9.270;2022-07-10T13:41:55;3.03;;;0.70;;
46751;SDS011;32497;48.936;9.270;2022-07-10T13:46:57;0.88;;;0.50;;
46751;SDS011;32497;48.936;9.270;2022-07-10T13:51:58;1.38;;;0.43;;
46751;SDS011;32497;48.936;9.270;2022-07-10T13:56:59;1.60;;;0.70;;
46751;SDS011;32497;48.936;9.270;2022-07-10T14:02:02;2.05;;;0.50;;
46751;SDS011;32497;48.936;9.270;2022-07-10T14:07:03;1.13;;;0.40;;
46751;SDS011;32497;48.936;9.270;2022-07-10T14:12:05;1.67;;;0.60;;
46751;SDS011;32497;48.936;9.270;2022-07-10T14:17:08;1.08;;;0.57;;
46751;SDS011;32497;48.936;9.270;2022-07-10T14:22:09;1.95;;;0.57;;
46751;SDS011;32497;48.936;9.270;2022-07-10T14:27:10;2.50;;;0.70;;
46751;SDS011;32497;48.936;9.270;2022-07-10T14:32:12;1.05;;;0.70;;
46751;SDS011;32497;48.936;9.270;2022-07-10T14:37:13;1.83;;;0.57;;
46751;SDS011;32497;48.936;9.270;2022-07-10T14:42:14;1.48;;;0.50;;
46751;SDS011;32497;48.936;9.270;2022-07-10T14:47:17;1.42;;;0.65;;
46751;SDS011;32497;48.936;9.270;2022-07-10T14:52:18;1.75;;;0.60;;
46751;SDS011;32497;48.936;9.270;2022-07-10T14:57:19;1.90;;;0.50;;
46751;SDS011;32497;48.936;9.270;2022-07-10T15:02:21;1.65;;;0.65;;
46751;SDS011;32497;48.936;9.270;2022-07-10T15:07:22;2.35;;;0.57;;
46751;SDS011;32497;48.936;9.270;2022-07-10T15:12:23;1.52;;;0.47;;
46751;SDS011;32497;48.936;9.270;2022-07-10T15:17:26;1.20;;;0.50;;
46751;SDS011;32497;48.936;9.270;2022-07-10T15:22:27;0.80;;;0.57;;
46751;SDS011;32497;48.936;9.270;2022-07-10T15:27:28;1.35;;;0.60;;
46751;SDS011;32497;48.936;9.270;2022-07-10T15:32:30;1.15;;;0.50;;
46751;SDS011;32497;48.936;9.270;2022-07-10T15:37:31;1.83;;;0.50;;
46751;SDS011;32497;48.936;9.270;2022-07-10T15:42:32;2.03;;;0.65;;
46751;SDS011;32497;48.936;9.270;2022-07-10T15:47:37;1.00;;;0.57;;
46751;SDS011;32497;48.936;9.270;2022-07-10T15:52:38;1.67;;;0.70;;
46751;SDS011;32497;48.936;9.270;2022-07-10T15:57:39;0.80;;;0.50;;
46751;SDS011;32497;48.936;9.270;2022-07-10T16:02:42;1.20;;;0.55;;
46751;SDS011;32497;48.936;9.270;2022-07-10T16:07:43;1.58;;;0.60;;
46751;SDS011;32497;48.936;9.270;2022-07-10T16:12:44;1.70;;;0.60;;
46751;SDS011;32497;48.936;9.270;2022-07-10T16:17:46;0.63;;;0.50;;
46751;SDS011;32497;48.936;9.270;2022-07-10T16:22:47;1.23;;;0.80;;
46751;SDS011;32497;48.936;9.270;2022-07-10T16:27:48;1.17;;;0.70;;
46751;SDS011;32497;48.936;9.270;2022-07-10T16:32:51;3.53;;;0.80;;
46751;SDS011;32497;48.936;9.270;2022-07-10T16:37:52;1.27;;;0.70;;
46751;SDS011;32497;48.936;9.270;2022-07-10T16:42:53;1.25;;;0.60;;
46751;SDS011;32497;48.936;9.270;2022-07-10T16:47:55;2.30;;;0.60;;
46751;SDS011;32497;48.936;9.270;2022-07-10T16:52:56;1.63;;;0.70;;
46751;SDS011;32497;48.936;9.270;2022-07-10T16:57:57;2.55;;;0.88;;
46751;SDS011;32497;48.936;9.270;2022-07-10T17:03:00;1.10;;;0.90;;
46751;SDS011;32497;48.936;9.270;2022-07-10T17:08:01;1.55;;;0.70;;
46751;SDS011;32497;48.936;9.270;2022-07-10T17:13:02;1.63;;;0.95;;
46751;SDS011;32497;48.936;9.270;2022-07-10T17:18:05;2.45;;;0.90;;
46751;SDS011;32497;48.936;9.270;2022-07-10T17:23:06;2.75;;;0.85;;
46751;SDS011;32497;48.936;9.270;2022-07-10T17:28:07;3.15;;;0.90;;
46751;SDS011;32497;48.936;9.270;2022-07-10T17:33:10;2.67;;;0.90;;
46751;SDS011;32497;48.936;9.270;2022-07-10T17:38:11;2.47;;;0.80;;
46751;SDS011;32497;48.936;9.270;2022-07-10T17:43:12;3.95;;;1.05;;
46751;SDS011;32497;48.936;9.270;2022-07-10T17:48:14;1.45;;;0.80;;
46751;SDS011;32497;48.936;9.270;2022-07-10T17:53:15;3.88;;;1.17;;
46751;SDS011;32497;48.936;9.270;2022-07-10T17:58:16;1.98;;;0.90;;
46751;SDS011;32497;48.936;9.270;2022-07-10T18:03:18;1.38;;;0.88;;
46751;SDS011;32497;48.936;9.270;2022-07-10T18:08:19;2.83;;;0.80;;
46751;SDS011;32497;48.936;9.270;2022-07-10T18:13:20;2.00;;;0.82;;
46751;SDS011;32497;48.936;9.270;2022-07-10T18:18:23;2.40;;;1.05;;
46751;SDS011;32497;48.936;9.270;2022-07-10T18:23:24;1.27;;;0.80;;
46751;SDS011;32497;48.936;9.270;2022-07-10T18:28:25;3.95;;;1.10;;
46751;SDS011;32497;48.936;9.270;2022-07-10T18:33:28;3.42;;;1.13;;
46751;SDS011;32497;48.936;9.270;2022-07-10T18:38:29;1.60;;;1.00;;
46751;SDS011;32497;48.936;9.270;2022-07-10T18:43:30;3.22;;;1.10;;
46751;SDS011;32497;48.936;9.270;2022-07-10T18:48:33;4.93;;;1.00;;
46751;SDS011;32497;48.936;9.270;2022-07-10T18:53:34;2.33;;;0.88;;
46751;SDS011;32497;48.936;9.270;2022-07-10T18:58:35;2.20;;;0.85;;
46751;SDS011;32497;48.936;9.270;2022-07-10T19:03:37;5.18;;;1.00;;
46751;SDS011;32497;48.936;9.270;2022-07-10T19:08:38;1.75;;;0.82;;
46751;SDS011;32497;48.936;9.270;2022-07-10T19:13:39;1.85;;;0.90;;
46751;SDS011;32497;48.936;9.270;2022-07-10T19:18:42;2.60;;;0.93;;
46751;SDS011;32497;48.936;9.270;2022-07-10T19:23:43;2.13;;;0.88;;
46751;SDS011;32497;48.936;9.270;2022-07-10T19:28:44;1.20;;;0.80;;
46751;SDS011;32497;48.936;9.270;2022-07-10T19:33:47;2.13;;;1.00;;
46751;SDS011;32497;48.936;9.270;2022-07-10T19:38:48;3.13;;;0.82;;
46751;SDS011;32497;48.936;9.270;2022-07-10T19:43:49;3.17;;;1.00;;
46751;SDS011;32497;48.936;9.270;2022-07-10T19:48:51;0.85;;;0.60;;
46751;SDS011;32497;48.936;9.270;2022-07-10T19:53:52;4.45;;;1.00;;
46751;SDS011;32497;48.936;9.270;2022-07-10T19:58:53;4.47;;;0.80;;
46751;SDS011;32497;48.936;9.270;2022-07-10T20:03:56;1.90;;;0.85;;
46751;SDS011;32497;48.936;9.270;2022-07-10T20:08:57;2.60;;;0.88;;
46751;SDS011;32497;48.936;9.270;2022-07-10T20:13:58;2.38;;;0.80;;
46751;SDS011;32497;48.936;9.270;2022-07-10T20:19:00;2.35;;;0.90;;
46751;SDS011;32497;48.936;9.270;2022-07-10T20:24:02;2.58;;;0.70;;
46751;SDS011;32497;48.936;9.270;2022-07-10T20:29:03;2.65;;;0.88;;
46751;SDS011;32497;48.936;9.270;2022-07-10T20:34:05;1.02;;;0.60;;
46751;SDS011;32497;48.936;9.270;2022-07-10T20:39:06;2.20;;;0.70;;
46751;SDS011;32497;48.936;9.270;2022-07-10T20:44:07;3.50;;;1.00;;
46751;SDS011;32497;48.936;9.270;2022-07-10T20:49:09;1.13;;;0.60;;
46751;SDS011;32497;48.936;9.270;2022-07-10T20:54:10;1.65;;;0.70;;
46751;SDS011;32497;48.936;9.270;2022-07-10T20:59:11;2.55;;;1.10;;
46751;SDS011;32497;48.936;9.270;2022-07-10T21:04:14;1.80;;;0.90;;
46751;SDS011;32497;48.936;9.270;2022-07-10T21:09:15;2.92;;;0.80;;
46751;SDS011;32497;48.936;9.270;2022-07-10T21:14:16;1.48;;;0.73;;
46751;SDS011;32497;48.936;9.270;2022-07-10T21:19:18;3.20;;;0.70;;
46751;SDS011;32497;48.936;9.270;2022-07-10T21:24:19;1.35;;;0.75;;
46751;SDS011;32497;48.936;9.270;2022-07-10T21:29:20;1.65;;;0.75;;
46751;SDS011;32497;48.936;9.270;2022-07-10T21:34:23;2.92;;;0.70;;
46751;SDS011;32497;48.936;9.270;2022-07-10T21:39:24;1.58;;;0.70;;
46751;SDS011;32497;48.936;9.270;2022-07-10T21:44:25;2.17;;;0.85;;
46751;SDS011;32497;48.936;9.270;2022-07-10T21:49:27;1.38;;;0.60;;
46751;SDS011;32497;48.936;9.270;2022-07-10T21:54:28;1.95;;;0.70;;
46751;SDS011;32497;48.936;9.270;2022-07-10T21:59:29;0.88;;;0.60;;
46751;SDS011;32497;48.936;9.270;2022-07-10T22:04:32;2.97;;;0.80;;
46751;SDS011;32497;48.936;9.270;2022-07-10T22:09:33;1.92;;;0.60;;
46751;SDS011;32497;48.936;9.270;2022-07-10T22:14:34;2.33;;;0.75;;
46751;SDS011;32497;48.936;9.270;2022-07-10T22:19:36;2.45;;;0.73;;
46751;SDS011;32497;48.936;9.270;2022-07-10T22:24:37;1.30;;;0.60;;
46751;SDS011;32497;48.936;9.270;2022-07-10T22:29:38;1.67;;;0.90;;
46751;SDS011;32497;48.936;9.270;2022-07-10T22:34:41;2.38;;;0.63;;
46751;SDS011;32497;48.936;9.270;2022-07-10T22:39:42;2.88;;;0.60;;
46751;SDS011;32497;48.936;9.270;2022-07-10T22:44:43;1.85;;;0.70;;
46751;SDS011;32497;48.936;9.270;2022-07-10T22:49:45;2.85;;;0.90;;
46751;SDS011;32497;48.936;9.270;2022-07-10T22:54:46;2.70;;;0.98;;
46751;SDS011;32497;48.936;9.270;2022-07-10T22:59:47;1.85;;;0.60;;
46751;SDS011;32497;48.936;9.270;2022-07-10T23:04:49;1.65;;;0.65;;
46751;SDS011;32497;48.936;9.270;2022-07-10T23:09:50;1.88;;;0.70;;
46751;SDS011;32497;48.936;9.270;2022-07-10T23:14:51;1.67;;;0.70;;
46751;SDS011;32497;48.936;9.270;2022-07-10T23:19:54;1.27;;;0.68;;
46751;SDS011;32497;48.936;9.270;2022-07-10T23:24:55;1.30;;;0.68;;
46751;SDS011;32497;48.936;9.270;2022-07-10T23:29:56;4.15;;;0.90;;
46751;SDS011;32497;48.936;9.270;2022-07-10T23:34:58;2.08;;;0.80;;
46751;SDS011;32497;48.936;9.270;2022-07-10T23:39:59;1.73;;;0.65;;
46751;SDS011;32497;48.936;9.270;2022-07-10T23:45:01;1.80;;;0.70;;
46751;SDS011;32497;48.936;9.270;2022-07-10T23:50:04;1.55;;;0.80;;
46751;SDS011;32497;48.936;9.270;2022-07-10T23:55:06;1.60;;;0.90;;
